1899 NOT_NAMED (1899068S15062)


IBTrACS version v04r00. Visit IBTrACS website for data access.
Please direct all questions to the IBTrACS Q and A forum

Storm track - Intensity - Wind Radii - Intensity Data - Source Data - All data

Summary Information

Storm ID 1899068S15062
Start Mar 9 00Z
End Mar 15 00Z
ATCF IDs
Track status Best track data.

Storm track plot

Map of storm track

Intensity plots

No Intensity information for this storm


Radial wind information

No radial wind information for this storm


Position and Intensity Table

BASIN ISO_TIME_________ NATURE LAT LON
degrees north degrees east
SI 1899-03-09 00:00:00 TS -14.80 62.10
SI 03:00:00 TS -14.90 61.84
SI 06:00:00 TS -15.00 61.60
SI 09:00:00 TS -15.10 61.40
SI 12:00:00 TS -15.20 61.20
SI 15:00:00 TS -15.30 60.95
SI 18:00:00 TS -15.40 60.70
SI 21:00:00 TS -15.50 60.48
SI 1899-03-10 00:00:00 TS -15.60 60.30
SI 03:00:00 TS -15.70 60.14
SI 06:00:00 TS -15.80 60.00
SI 09:00:00 TS -15.91 59.85
SI 12:00:00 TS -16.00 59.70
SI 15:00:00 TS -16.05 59.54
SI 18:00:00 TS -16.10 59.40
SI 21:00:00 TS -16.18 59.31
SI 1899-03-11 00:00:00 TS -16.30 59.20
SI 03:00:00 TS -16.44 58.97
SI 06:00:00 TS -16.60 58.70
SI 09:00:00 TS -16.74 58.45
SI 12:00:00 TS -16.90 58.20
SI 15:00:00 TS -17.09 57.95
SI 18:00:00 TS -17.30 57.70
SI 21:00:00 TS -17.50 57.45
SI 1899-03-12 00:00:00 TS -17.70 57.20
SI 03:00:00 TS -17.89 56.94
SI 06:00:00 TS -18.10 56.70
SI 09:00:00 TS -18.33 56.49
SI 12:00:00 TS -18.60 56.30
SI 15:00:00 TS -18.89 56.09
SI 18:00:00 TS -19.20 55.90
SI 21:00:00 TS -19.48 55.74
SI 1899-03-13 00:00:00 TS -19.80 55.60
SI 03:00:00 TS -20.18 55.45
SI 06:00:00 TS -20.60 55.30
SI 09:00:00 TS -21.00 55.14
SI 12:00:00 TS -21.40 55.00
SI 15:00:00 TS -21.80 54.88
SI 18:00:00 TS -22.20 54.80
SI 21:00:00 TS -22.58 54.75
SI 1899-03-14 00:00:00 TS -23.00 54.70
SI 03:00:00 TS -23.49 54.60
SI 06:00:00 TS -24.00 54.50
SI 09:00:00 TS -24.51 54.44
SI 12:00:00 TS -25.00 54.40
SI 15:00:00 TS -25.41 54.34
SI 18:00:00 TS -25.80 54.30
SI 21:00:00 TS -26.24 54.29
SI 1899-03-15 00:00:00 TS -26.70 54.30

Source Information

Agency Information
USA
TOKYO
CMA
HKO
NEWDELHI
REUNION
BOM
NADI
WELLINGTON
DS824 s_hem.dat:103:NOT NAMED
TD9636
TD9635
NEUMANN
MLC

All available IBTrACS Data

SEASON BASIN SUBBASIN ISO_TIME_________ NATURE LAT LON DIST2LAND LANDFALL IFLAG USA SSHS DS824 LAT DS824 LON DS824 STAGE STORM SPEED STORM DIR
Year degrees north degrees east km km 1 degrees north degrees east kts degrees
1899 SI MM 1899-03-09 00:00:00 TS -14.80 62.10 754 732 _________O____ -1 -14.80 62.10 TC 5 248
1899 SI MM 03:00:00 TS -14.90 61.84 726 704 _________P____ -1 -14.90 61.84 TC 5 248
1899 SI MM 06:00:00 TS -15.00 61.60 704 683 _________O____ -1 -15.00 61.60 TC 5 245
1899 SI MM 09:00:00 TS -15.10 61.40 683 661 _________P____ -1 -15.10 61.40 TC 4 243
1899 SI MM 12:00:00 TS -15.20 61.20 661 640 _________O____ -1 -15.20 61.20 TC 5 245
1899 SI MM 15:00:00 TS -15.30 60.95 640 614 _________P____ -1 -15.30 60.95 TC 5 248
1899 SI MM 18:00:00 TS -15.40 60.70 614 593 _________O____ -1 -15.40 60.70 TC 5 246
1899 SI MM 21:00:00 TS -15.50 60.48 593 573 _________P____ -1 -15.50 60.48 TC 4 243
1899 SI MM 1899-03-10 00:00:00 TS -15.60 60.30 573 558 _________O____ -1 -15.60 60.30 TC 4 239
1899 SI MM 03:00:00 TS -15.70 60.14 553 539 _________P____ -1 -15.70 60.14 TC 4 235
1899 SI MM 06:00:00 TS -15.80 60.00 539 524 _________O____ -1 -15.80 60.00 TC 4 234
1899 SI MM 09:00:00 TS -15.91 59.85 524 505 _________P____ -1 -15.91 59.85 TC 4 235
1899 SI MM 12:00:00 TS -16.00 59.70 505 500 _________O____ -1 -16.00 59.70 TC 3 244
1899 SI MM 15:00:00 TS -16.05 59.54 496 482 _________P____ -1 -16.05 59.54 TC 3 251
1899 SI MM 18:00:00 TS -16.10 59.40 482 467 _________O____ -1 -16.10 59.40 TC 3 239
1899 SI MM 21:00:00 TS -16.18 59.31 467 453 _________P____ -1 -16.18 59.31 TC 3 224
1899 SI MM 1899-03-11 00:00:00 TS -16.30 59.20 453 436 _________O____ -1 -16.30 59.20 TC 4 232
1899 SI MM 03:00:00 TS -16.44 58.97 436 405 _________P____ -1 -16.44 58.97 TC 6 238
1899 SI MM 06:00:00 TS -16.60 58.70 405 389 _________O____ -1 -16.60 58.70 TC 6 239
1899 SI MM 09:00:00 TS -16.74 58.45 387 361 _________P____ -1 -16.74 58.45 TC 6 238
1899 SI MM 12:00:00 TS -16.90 58.20 361 337 _________O____ -1 -16.90 58.20 TC 6 234
1899 SI MM 15:00:00 TS -17.09 57.95 336 313 _________P____ -1 -17.09 57.95 TC 6 230
1899 SI MM 18:00:00 TS -17.30 57.70 313 290 _________O____ -1 -17.30 57.70 TC 6 230
1899 SI MM 21:00:00 TS -17.50 57.45 291 269 _________P____ -1 -17.50 57.45 TC 6 230
1899 SI MM 1899-03-12 00:00:00 TS -17.70 57.20 270 251 _________O____ -1 -17.70 57.20 TC 6 231
1899 SI MM 03:00:00 TS -17.89 56.94 254 235 _________P____ -1 -17.89 56.94 TC 6 230
1899 SI MM 06:00:00 TS -18.10 56.70 239 222 _________O____ -1 -18.10 56.70 TC 6 224
1899 SI MM 09:00:00 TS -18.33 56.49 227 209 _________P____ -1 -18.33 56.49 TC 6 217
1899 SI MM 12:00:00 TS -18.60 56.30 209 198 _________O____ -1 -18.60 56.30 TC 7 214
1899 SI MM 15:00:00 TS -18.89 56.09 198 192 _________P____ -1 -18.89 56.09 TC 7 212
1899 SI MM 18:00:00 TS -19.20 55.90 195 168 _________O____ -1 -19.20 55.90 TC 7 209
1899 SI MM 21:00:00 TS -19.48 55.74 167 134 _________P____ -1 -19.48 55.74 TC 7 205
1899 SI MM 1899-03-13 00:00:00 TS -19.80 55.60 134 89 _________O____ -1 -19.80 55.60 TC 8 201
1899 SI MM 03:00:00 TS -20.18 55.45 89 44 _________P____ -1 -20.18 55.45 TC 9 199
1899 SI MM 06:00:00 TS -20.60 55.30 44 10 _________O____ -1 -20.60 55.30 TC 9 199
1899 SI MM 09:00:00 TS -21.00 55.14 15 10 _________P____ -1 -21.00 55.14 TC 9 199
1899 SI MM 12:00:00 TS -21.40 55.00 33 33 _________O____ -1 -21.40 55.00 TC 8 197
1899 SI MM 15:00:00 TS -21.80 54.88 69 69 _________P____ -1 -21.80 54.88 TC 8 193
1899 SI MM 18:00:00 TS -22.20 54.80 113 113 _________O____ -1 -22.20 54.80 TC 8 189
1899 SI MM 21:00:00 TS -22.58 54.75 157 157 _________P____ -1 -22.58 54.75 TC 8 186
1899 SI MM 1899-03-14 00:00:00 TS -23.00 54.70 199 199 _________O____ -1 -23.00 54.70 TC 9 188
1899 SI MM 03:00:00 TS -23.49 54.60 256 256 _________P____ -1 -23.49 54.60 TC 10 190
1899 SI MM 06:00:00 TS -24.00 54.50 311 311 _________O____ -1 -24.00 54.50 TC 10 188
1899 SI MM 09:00:00 TS -24.51 54.44 367 367 _________P____ -1 -24.51 54.44 TC 10 185
1899 SI MM 12:00:00 TS -25.00 54.40 420 420 _________O____ -1 -25.00 54.40 TC 9 186
1899 SI MM 15:00:00 TS -25.41 54.34 466 466 _________P____ -1 -25.41 54.34 TC 8 186
1899 SI MM 18:00:00 TS -25.80 54.30 509 509 _________O____ -1 -25.80 54.30 TC 8 182
1899 SI MM 21:00:00 TS -26.24 54.29 552 552 _________P____ -1 -26.24 54.29 TC 9 0
1899 SI MM 1899-03-15 00:00:00 TS -26.70 54.30 606 _________O____ -1 -26.70 54.30 TC 9 0